Terminal Aerodrome Forecast
Issued by NWS Albany, NY

Home | Current Version | Previous Version | Text Only | Print | Product List | Glossary On
Versions: 1 2 3 4 5 6 7 8 9 10 11 12 13 14 15 16 17 18 19 20
954
FTUS41 KALY 221120
TAFALB
TAF
KALB 221120Z 2212/2312 24008KT P6SM SCT100
     FM221500 29012G20KT P6SM SCT060
     FM221800 29016G27KT P6SM SCT060
     FM230200 30012KT P6SM SKC
     FM230700 VRB03KT P6SM SKC=

USA.gov is the U.S. government's official web portal to all federal, state and local government web resources and services.